Terminal Aerodrome Forecast
Issued by NWS Amarillo, TX

Home | Current Version | Previous Version | Text Only | Print | Product List | Glossary On
Versions: 1 2 3 4 5 6 7 8 9 10 11 12 13 14 15 16 17 18
984
FTUS44 KAMA 272353
TAFAMA
TAF
KAMA 272353Z 2800/2824 06009KT P6SM VCTS SCT050CB BKN090
     FM280200 06009KT P6SM SCT070 SCT120 BKN300
     FM280800 07008KT P6SM BKN050 OVC120
     FM281400 10009KT P6SM BKN050=

USA.gov is the U.S. government's official web portal to all federal, state and local government web resources and services.